sensor_id;sensor_type;location;lat;lon;timestamp;pressure;altitude;pressure_sealevel;temperature;humidity
45050;BME280;61798;48.048;-1.928;2024-02-21T00:00:38;100758.19;;;7.78;100.00
45050;BME280;61798;48.048;-1.928;2024-02-21T00:02:46;100724.38;;;7.70;100.00
45050;BME280;61798;48.048;-1.928;2024-02-21T00:04:51;100722.03;;;7.75;100.00
45050;BME280;61798;48.048;-1.928;2024-02-21T00:06:59;100724.38;;;7.70;100.00
45050;BME280;61798;48.048;-1.928;2024-02-21T00:09:06;100724.22;;;7.71;100.00
45050;BME280;61798;48.048;-1.928;2024-02-21T00:11:13;100709.19;;;7.70;100.00
45050;BME280;61798;48.048;-1.928;2024-02-21T00:13:20;100724.50;;;7.77;100.00
45050;BME280;61798;48.048;-1.928;2024-02-21T00:15:27;100705.03;;;7.76;100.00
45050;BME280;61798;48.048;-1.928;2024-02-21T00:17:34;100699.00;;;7.74;100.00
45050;BME280;61798;48.048;-1.928;2024-02-21T00:19:41;100702.16;;;7.78;100.00
45050;BME280;61798;48.048;-1.928;2024-02-21T00:21:48;100662.88;;;7.63;100.00
45050;BME280;61798;48.048;-1.928;2024-02-21T00:23:55;100678.19;;;7.69;100.00
45050;BME280;61798;48.048;-1.928;2024-02-21T00:26:02;100655.84;;;7.70;100.00
45050;BME280;61798;48.048;-1.928;2024-02-21T00:28:09;100654.34;;;7.76;100.00
45050;BME280;61798;48.048;-1.928;2024-02-21T00:30:18;100639.97;;;7.77;100.00
45050;BME280;61798;48.048;-1.928;2024-02-21T00:32:25;100644.16;;;7.80;100.00
45050;BME280;61798;48.048;-1.928;2024-02-21T00:34:33;100641.50;;;7.71;100.00
45050;BME280;61798;48.048;-1.928;2024-02-21T00:36:40;100645.16;;;7.79;100.00
45050;BME280;61798;48.048;-1.928;2024-02-21T00:38:47;100629.78;;;7.81;100.00
45050;BME280;61798;48.048;-1.928;2024-02-21T00:40:54;100630.81;;;7.80;100.00
45050;BME280;61798;48.048;-1.928;2024-02-21T00:43:01;100602.13;;;7.74;100.00
45050;BME280;61798;48.048;-1.928;2024-02-21T00:45:09;100608.16;;;7.76;100.00
45050;BME280;61798;48.048;-1.928;2024-02-21T00:47:16;100605.28;;;7.77;100.00
45050;BME280;61798;48.048;-1.928;2024-02-21T00:49:23;100588.81;;;7.74;100.00
45050;BME280;61798;48.048;-1.928;2024-02-21T00:51:30;100574.47;;;7.75;100.00
45050;BME280;61798;48.048;-1.928;2024-02-21T00:53:37;100555.53;;;7.61;100.00
45050;BME280;61798;48.048;-1.928;2024-02-21T00:55:44;100579.75;;;7.83;100.00
45050;BME280;61798;48.048;-1.928;2024-02-21T00:57:52;100583.44;;;7.82;100.00
45050;BME280;61798;48.048;-1.928;2024-02-21T00:59:57;100560.41;;;7.81;100.00
45050;BME280;61798;48.048;-1.928;2024-02-21T01:02:04;100570.91;;;7.82;100.00
45050;BME280;61798;48.048;-1.928;2024-02-21T01:04:11;100520.44;;;7.72;100.00
45050;BME280;61798;48.048;-1.928;2024-02-21T01:06:19;100531.72;;;7.83;100.00
45050;BME280;61798;48.048;-1.928;2024-02-21T01:08:26;100537.44;;;7.80;100.00
45050;BME280;61798;48.048;-1.928;2024-02-21T01:10:33;100502.44;;;7.75;100.00
45050;BME280;61798;48.048;-1.928;2024-02-21T01:12:41;100503.75;;;7.79;100.00
45050;BME280;61798;48.048;-1.928;2024-02-21T01:14:48;100492.72;;;7.82;100.00
45050;BME280;61798;48.048;-1.928;2024-02-21T01:16:56;100496.06;;;7.84;100.00
45050;BME280;61798;48.048;-1.928;2024-02-21T01:19:03;100481.75;;;7.77;100.00
45050;BME280;61798;48.048;-1.928;2024-02-21T01:21:10;100482.28;;;7.72;100.00
45050;BME280;61798;48.048;-1.928;2024-02-21T01:23:18;100497.22;;;7.81;100.00
45050;BME280;61798;48.048;-1.928;2024-02-21T01:25:26;100472.09;;;7.76;100.00
45050;BME280;61798;48.048;-1.928;2024-02-21T01:27:33;100477.44;;;7.76;100.00
45050;BME280;61798;48.048;-1.928;2024-02-21T01:29:40;100487.91;;;7.77;100.00
45050;BME280;61798;48.048;-1.928;2024-02-21T01:31:47;100471.72;;;7.79;100.00
45050;BME280;61798;48.048;-1.928;2024-02-21T01:33:54;100463.91;;;7.77;100.00
45050;BME280;61798;48.048;-1.928;2024-02-21T01:36:02;100456.50;;;7.64;100.00
45050;BME280;61798;48.048;-1.928;2024-02-21T01:38:10;100470.44;;;7.75;100.00
45050;BME280;61798;48.048;-1.928;2024-02-21T01:40:19;100460.41;;;7.77;100.00
45050;BME280;61798;48.048;-1.928;2024-02-21T01:42:27;100440.91;;;7.76;100.00
45050;BME280;61798;48.048;-1.928;2024-02-21T01:44:34;100426.50;;;7.62;100.00
45050;BME280;61798;48.048;-1.928;2024-02-21T01:46:41;100453.44;;;7.76;100.00
45050;BME280;61798;48.048;-1.928;2024-02-21T01:48:48;100447.63;;;7.72;100.00
45050;BME280;61798;48.048;-1.928;2024-02-21T01:50:56;100451.59;;;7.76;100.00
45050;BME280;61798;48.048;-1.928;2024-02-21T01:53:03;100451.91;;;7.73;100.00
45050;BME280;61798;48.048;-1.928;2024-02-21T01:55:11;100414.78;;;7.71;100.00
45050;BME280;61798;48.048;-1.928;2024-02-21T01:57:20;100431.53;;;7.80;100.00
45050;BME280;61798;48.048;-1.928;2024-02-21T01:59:27;100417.53;;;7.78;100.00
45050;BME280;61798;48.048;-1.928;2024-02-21T02:01:35;100410.38;;;7.79;100.00
45050;BME280;61798;48.048;-1.928;2024-02-21T02:03:42;100411.38;;;7.78;100.00
45050;BME280;61798;48.048;-1.928;2024-02-21T02:05:50;100400.41;;;7.72;100.00
45050;BME280;61798;48.048;-1.928;2024-02-21T02:07:56;100400.34;;;7.81;100.00
45050;BME280;61798;48.048;-1.928;2024-02-21T02:10:03;100394.38;;;7.79;100.00
45050;BME280;61798;48.048;-1.928;2024-02-21T02:12:09;100377.44;;;7.71;100.00
45050;BME280;61798;48.048;-1.928;2024-02-21T02:14:15;100368.59;;;7.71;100.00
45050;BME280;61798;48.048;-1.928;2024-02-21T02:16:21;100370.53;;;7.77;100.00
45050;BME280;61798;48.048;-1.928;2024-02-21T02:18:27;100347.25;;;7.71;100.00
45050;BME280;61798;48.048;-1.928;2024-02-21T02:20:32;100354.34;;;7.79;100.00
45050;BME280;61798;48.048;-1.928;2024-02-21T02:22:39;100344.88;;;7.76;100.00
45050;BME280;61798;48.048;-1.928;2024-02-21T02:24:46;100336.69;;;7.78;100.00
45050;BME280;61798;48.048;-1.928;2024-02-21T02:26:52;100317.38;;;7.76;100.00
45050;BME280;61798;48.048;-1.928;2024-02-21T02:28:58;100314.72;;;7.76;100.00
45050;BME280;61798;48.048;-1.928;2024-02-21T02:31:04;100275.50;;;7.61;100.00
45050;BME280;61798;48.048;-1.928;2024-02-21T02:33:11;100287.91;;;7.69;100.00
45050;BME280;61798;48.048;-1.928;2024-02-21T02:35:16;100288.59;;;7.71;100.00
45050;BME280;61798;48.048;-1.928;2024-02-21T02:37:22;100292.09;;;7.71;100.00
45050;BME280;61798;48.048;-1.928;2024-02-21T02:39:28;100265.88;;;7.60;100.00
45050;BME280;61798;48.048;-1.928;2024-02-21T02:41:37;100288.59;;;7.71;100.00
45050;BME280;61798;48.048;-1.928;2024-02-21T02:43:42;100275.25;;;7.71;100.00
45050;BME280;61798;48.048;-1.928;2024-02-21T02:45:48;100271.28;;;7.67;100.00
45050;BME280;61798;48.048;-1.928;2024-02-21T02:47:54;100266.13;;;7.65;100.00
45050;BME280;61798;48.048;-1.928;2024-02-21T02:50:02;100269.72;;;7.72;100.00
45050;BME280;61798;48.048;-1.928;2024-02-21T02:52:08;100272.13;;;7.67;100.00
45050;BME280;61798;48.048;-1.928;2024-02-21T02:54:14;100265.28;;;7.65;100.00
45050;BME280;61798;48.048;-1.928;2024-02-21T02:56:19;100274.78;;;7.67;100.00
45050;BME280;61798;48.048;-1.928;2024-02-21T02:58:25;100279.09;;;7.68;100.00
45050;BME280;61798;48.048;-1.928;2024-02-21T03:00:31;100261.16;;;7.62;100.00
45050;BME280;61798;48.048;-1.928;2024-02-21T03:02:44;100285.44;;;7.67;100.00
45050;BME280;61798;48.048;-1.928;2024-02-21T03:04:51;100257.56;;;7.55;100.00
45050;BME280;61798;48.048;-1.928;2024-02-21T03:06:57;100269.00;;;7.64;100.00
45050;BME280;61798;48.048;-1.928;2024-02-21T03:09:03;100268.78;;;7.65;100.00
45050;BME280;61798;48.048;-1.928;2024-02-21T03:11:14;100254.63;;;7.65;100.00
45050;BME280;61798;48.048;-1.928;2024-02-21T03:13:19;100265.50;;;7.63;100.00
45050;BME280;61798;48.048;-1.928;2024-02-21T03:15:25;100259.50;;;7.61;100.00
45050;BME280;61798;48.048;-1.928;2024-02-21T03:17:31;100270.44;;;7.66;100.00
45050;BME280;61798;48.048;-1.928;2024-02-21T03:19:39;100242.19;;;7.57;100.00
45050;BME280;61798;48.048;-1.928;2024-02-21T03:21:45;100238.72;;;7.56;100.00
45050;BME280;61798;48.048;-1.928;2024-02-21T03:23:51;100253.63;;;7.66;100.00
45050;BME280;61798;48.048;-1.928;2024-02-21T03:25:57;100255.09;;;7.68;100.00
45050;BME280;61798;48.048;-1.928;2024-02-21T03:28:02;100249.94;;;7.67;100.00
45050;BME280;61798;48.048;-1.928;2024-02-21T03:30:10;100244.25;;;7.70;100.00
45050;BME280;61798;48.048;-1.928;2024-02-21T03:32:18;100248.13;;;7.67;100.00
45050;BME280;61798;48.048;-1.928;2024-02-21T03:34:23;100223.81;;;7.62;100.00
45050;BME280;61798;48.048;-1.928;2024-02-21T03:36:29;100240.75;;;7.69;100.00
45050;BME280;61798;48.048;-1.928;2024-02-21T03:38:35;100233.50;;;7.63;100.00
45050;BME280;61798;48.048;-1.928;2024-02-21T03:40:41;100240.75;;;7.69;100.00
45050;BME280;61798;48.048;-1.928;2024-02-21T03:42:47;100238.38;;;7.59;100.00
45050;BME280;61798;48.048;-1.928;2024-02-21T03:44:53;100236.25;;;7.70;100.00
45050;BME280;61798;48.048;-1.928;2024-02-21T03:46:59;100252.41;;;7.68;100.00
45050;BME280;61798;48.048;-1.928;2024-02-21T03:49:05;100217.41;;;7.56;100.00
45050;BME280;61798;48.048;-1.928;2024-02-21T03:51:11;100231.44;;;7.65;100.00
45050;BME280;61798;48.048;-1.928;2024-02-21T03:53:17;100218.66;;;7.60;100.00
45050;BME280;61798;48.048;-1.928;2024-02-21T03:55:23;100215.44;;;7.65;100.00
45050;BME280;61798;48.048;-1.928;2024-02-21T03:57:28;100206.38;;;7.59;100.00
45050;BME280;61798;48.048;-1.928;2024-02-21T03:59:34;100212.16;;;7.63;100.00
45050;BME280;61798;48.048;-1.928;2024-02-21T04:01:40;100225.13;;;7.66;100.00
45050;BME280;61798;48.048;-1.928;2024-02-21T04:03:46;100188.63;;;7.51;100.00
45050;BME280;61798;48.048;-1.928;2024-02-21T04:05:52;100208.81;;;7.61;100.00
45050;BME280;61798;48.048;-1.928;2024-02-21T04:07:58;100211.59;;;7.68;100.00
45050;BME280;61798;48.048;-1.928;2024-02-21T04:10:04;100192.47;;;7.64;100.00
45050;BME280;61798;48.048;-1.928;2024-02-21T04:12:10;100198.28;;;7.68;100.00
45050;BME280;61798;48.048;-1.928;2024-02-21T04:14:16;100178.41;;;7.55;100.00
45050;BME280;61798;48.048;-1.928;2024-02-21T04:16:22;100188.41;;;7.68;100.00
45050;BME280;61798;48.048;-1.928;2024-02-21T04:18:28;100182.06;;;7.69;100.00
45050;BME280;61798;48.048;-1.928;2024-02-21T04:20:34;100193.19;;;7.73;100.00
45050;BME280;61798;48.048;-1.928;2024-02-21T04:22:42;100195.22;;;7.71;100.00
45050;BME280;61798;48.048;-1.928;2024-02-21T04:24:48;100182.72;;;7.71;100.00
45050;BME280;61798;48.048;-1.928;2024-02-21T04:26:54;100161.28;;;7.65;100.00
45050;BME280;61798;48.048;-1.928;2024-02-21T04:29:00;100177.00;;;7.75;100.00
45050;BME280;61798;48.048;-1.928;2024-02-21T04:31:06;100173.06;;;7.70;100.00
45050;BME280;61798;48.048;-1.928;2024-02-21T04:33:11;100162.56;;;7.69;100.00
45050;BME280;61798;48.048;-1.928;2024-02-21T04:35:17;100169.09;;;7.66;100.00
45050;BME280;61798;48.048;-1.928;2024-02-21T04:37:23;100155.78;;;7.66;100.00
45050;BME280;61798;48.048;-1.928;2024-02-21T04:39:30;100163.84;;;7.73;100.00
45050;BME280;61798;48.048;-1.928;2024-02-21T04:41:35;100158.50;;;7.73;100.00
45050;BME280;61798;48.048;-1.928;2024-02-21T04:43:41;100159.56;;;7.72;100.00
45050;BME280;61798;48.048;-1.928;2024-02-21T04:45:48;100161.38;;;7.71;100.00
45050;BME280;61798;48.048;-1.928;2024-02-21T04:47:56;100135.19;;;7.60;100.00
45050;BME280;61798;48.048;-1.928;2024-02-21T04:50:03;100151.34;;;7.74;100.00
45050;BME280;61798;48.048;-1.928;2024-02-21T04:52:09;100146.00;;;7.74;100.00
45050;BME280;61798;48.048;-1.928;2024-02-21T04:54:16;100128.72;;;7.69;100.00
45050;BME280;61798;48.048;-1.928;2024-02-21T04:56:23;100149.34;;;7.76;100.00
45050;BME280;61798;48.048;-1.928;2024-02-21T04:58:30;100123.22;;;7.71;100.00
45050;BME280;61798;48.048;-1.928;2024-02-21T05:00:37;100124.03;;;7.71;100.00
45050;BME280;61798;48.048;-1.928;2024-02-21T05:02:44;100134.97;;;7.77;100.00
45050;BME280;61798;48.048;-1.928;2024-02-21T05:04:51;100116.66;;;7.74;100.00
45050;BME280;61798;48.048;-1.928;2024-02-21T05:07:00;100133.56;;;7.81;100.00
45050;BME280;61798;48.048;-1.928;2024-02-21T05:09:09;100128.00;;;7.76;100.00
45050;BME280;61798;48.048;-1.928;2024-02-21T05:11:15;100118.31;;;7.75;100.00
45050;BME280;61798;48.048;-1.928;2024-02-21T05:13:22;100109.56;;;7.81;100.00
45050;BME280;61798;48.048;-1.928;2024-02-21T05:15:29;100103.78;;;7.77;100.00
45050;BME280;61798;48.048;-1.928;2024-02-21T05:17:36;100106.06;;;7.80;100.00
45050;BME280;61798;48.048;-1.928;2024-02-21T05:19:43;100101.56;;;7.81;100.00
45050;BME280;61798;48.048;-1.928;2024-02-21T05:21:50;100091.94;;;7.80;100.00
45050;BME280;61798;48.048;-1.928;2024-02-21T05:23:57;100094.22;;;7.83;100.00
45050;BME280;61798;48.048;-1.928;2024-02-21T05:26:05;100085.22;;;7.84;100.00
45050;BME280;61798;48.048;-1.928;2024-02-21T05:28:12;100079.41;;;7.80;100.00
45050;BME280;61798;48.048;-1.928;2024-02-21T05:30:19;100076.56;;;7.82;100.00
45050;BME280;61798;48.048;-1.928;2024-02-21T05:32:27;100063.78;;;7.77;100.00
45050;BME280;61798;48.048;-1.928;2024-02-21T05:34:34;100062.59;;;7.80;100.00
45050;BME280;61798;48.048;-1.928;2024-02-21T05:36:41;100064.88;;;7.83;100.00
45050;BME280;61798;48.048;-1.928;2024-02-21T05:38:48;100061.81;;;7.86;100.00
45050;BME280;61798;48.048;-1.928;2024-02-21T05:40:55;100059.31;;;7.85;100.00
45050;BME280;61798;48.048;-1.928;2024-02-21T05:43:04;100023.03;;;7.68;100.00
45050;BME280;61798;48.048;-1.928;2024-02-21T05:45:11;100035.91;;;7.80;100.00
45050;BME280;61798;48.048;-1.928;2024-02-21T05:47:18;100028.09;;;7.78;100.00
45050;BME280;61798;48.048;-1.928;2024-02-21T05:49:27;100024.03;;;7.82;100.00
45050;BME280;61798;48.048;-1.928;2024-02-21T05:51:36;100030.44;;;7.88;100.00
45050;BME280;61798;48.048;-1.928;2024-02-21T05:53:43;100018.50;;;7.84;100.00
45050;BME280;61798;48.048;-1.928;2024-02-21T05:55:50;100026.13;;;7.87;100.00
45050;BME280;61798;48.048;-1.928;2024-02-21T05:57:57;100012.97;;;7.86;100.00
45050;BME280;61798;48.048;-1.928;2024-02-21T06:00:05;100014.63;;;7.87;100.00
45050;BME280;61798;48.048;-1.928;2024-02-21T06:02:13;100005.53;;;7.81;100.00
45050;BME280;61798;48.048;-1.928;2024-02-21T06:04:20;100006.25;;;7.90;100.00
45050;BME280;61798;48.048;-1.928;2024-02-21T06:06:27;100012.41;;;7.90;100.00
45050;BME280;61798;48.048;-1.928;2024-02-21T06:08:33;100009.56;;;7.92;100.00
45050;BME280;61798;48.048;-1.928;2024-02-21T06:10:39;99996.56;;;7.89;100.00
45050;BME280;61798;48.048;-1.928;2024-02-21T06:12:45;99978.94;;;7.88;100.00
45050;BME280;61798;48.048;-1.928;2024-02-21T06:14:52;99993.34;;;7.93;100.00
45050;BME280;61798;48.048;-1.928;2024-02-21T06:16:59;99980.22;;;7.92;100.00
45050;BME280;61798;48.048;-1.928;2024-02-21T06:19:06;99967.06;;;7.90;100.00
45050;BME280;61798;48.048;-1.928;2024-02-21T06:21:13;99971.59;;;7.97;100.00
45050;BME280;61798;48.048;-1.928;2024-02-21T06:23:20;99947.28;;;7.85;100.00
45050;BME280;61798;48.048;-1.928;2024-02-21T06:25:27;99950.88;;;7.92;100.00
45050;BME280;61798;48.048;-1.928;2024-02-21T06:27:35;99943.88;;;7.91;100.00
45050;BME280;61798;48.048;-1.928;2024-02-21T06:29:42;99942.91;;;7.99;100.00
45050;BME280;61798;48.048;-1.928;2024-02-21T06:31:49;99925.63;;;7.95;100.00
45050;BME280;61798;48.048;-1.928;2024-02-21T06:33:56;99926.25;;;7.97;100.00
45050;BME280;61798;48.048;-1.928;2024-02-21T06:36:03;99937.59;;;8.06;100.00
45050;BME280;61798;48.048;-1.928;2024-02-21T06:38:10;99927.72;;;7.99;100.00
45050;BME280;61798;48.048;-1.928;2024-02-21T06:40:21;99916.41;;;7.97;100.00
45050;BME280;61798;48.048;-1.928;2024-02-21T06:42:28;99914.81;;;8.03;100.00
45050;BME280;61798;48.048;-1.928;2024-02-21T06:44:36;99902.47;;;8.02;100.00
45050;BME280;61798;48.048;-1.928;2024-02-21T06:46:47;99919.94;;;8.04;100.00
45050;BME280;61798;48.048;-1.928;2024-02-21T06:48:54;99896.91;;;7.97;100.00
45050;BME280;61798;48.048;-1.928;2024-02-21T06:51:01;99895.94;;;8.04;100.00
45050;BME280;61798;48.048;-1.928;2024-02-21T06:53:10;99888.56;;;8.07;100.00
45050;BME280;61798;48.048;-1.928;2024-02-21T06:55:16;99881.56;;;8.06;100.00
45050;BME280;61798;48.048;-1.928;2024-02-21T06:57:24;99907.88;;;8.09;100.00
45050;BME280;61798;48.048;-1.928;2024-02-21T06:59:30;99907.69;;;8.10;100.00
45050;BME280;61798;48.048;-1.928;2024-02-21T07:01:37;99907.69;;;8.10;100.00
45050;BME280;61798;48.048;-1.928;2024-02-21T07:03:44;99898.22;;;8.08;100.00
45050;BME280;61798;48.048;-1.928;2024-02-21T07:05:51;99902.59;;;8.16;100.00
45050;BME280;61798;48.048;-1.928;2024-02-21T07:07:58;99908.50;;;8.11;100.00
45050;BME280;61798;48.048;-1.928;2024-02-21T07:10:06;99905.25;;;8.16;100.00
45050;BME280;61798;48.048;-1.928;2024-02-21T07:12:13;99900.72;;;8.16;100.00
45050;BME280;61798;48.048;-1.928;2024-02-21T07:14:19;99884.50;;;8.11;100.00
45050;BME280;61798;48.048;-1.928;2024-02-21T07:16:25;99883.09;;;8.15;100.00
45050;BME280;61798;48.048;-1.928;2024-02-21T07:18:32;99877.53;;;8.17;100.00
45050;BME280;61798;48.048;-1.928;2024-02-21T07:20:37;99864.13;;;8.03;100.00
45050;BME280;61798;48.048;-1.928;2024-02-21T07:22:43;99867.00;;;8.08;100.00
45050;BME280;61798;48.048;-1.928;2024-02-21T07:24:49;99882.94;;;8.23;100.00
45050;BME280;61798;48.048;-1.928;2024-02-21T07:26:56;99876.94;;;8.21;100.00
45050;BME280;61798;48.048;-1.928;2024-02-21T07:29:04;99870.34;;;8.17;100.00
45050;BME280;61798;48.048;-1.928;2024-02-21T07:31:10;99874.09;;;8.23;100.00
45050;BME280;61798;48.048;-1.928;2024-02-21T07:33:17;99867.75;;;8.24;100.00
45050;BME280;61798;48.048;-1.928;2024-02-21T07:35:25;99861.50;;;8.17;100.00
45050;BME280;61798;48.048;-1.928;2024-02-21T07:37:34;99870.22;;;8.32;100.00
45050;BME280;61798;48.048;-1.928;2024-02-21T07:39:42;99857.91;;;8.31;100.00
45050;BME280;61798;48.048;-1.928;2024-02-21T07:41:49;99846.59;;;8.29;100.00
45050;BME280;61798;48.048;-1.928;2024-02-21T07:43:57;99836.34;;;8.33;100.00
45050;BME280;61798;48.048;-1.928;2024-02-21T07:46:04;99826.91;;;8.30;100.00
45050;BME280;61798;48.048;-1.928;2024-02-21T07:48:11;99822.56;;;8.29;100.00
45050;BME280;61798;48.048;-1.928;2024-02-21T07:50:18;99808.81;;;8.32;100.00
45050;BME280;61798;48.048;-1.928;2024-02-21T07:52:25;99803.06;;;8.29;100.00
45050;BME280;61798;48.048;-1.928;2024-02-21T07:54:32;99799.19;;;8.31;100.00
45050;BME280;61798;48.048;-1.928;2024-02-21T07:56:39;99810.47;;;8.33;100.00
45050;BME280;61798;48.048;-1.928;2024-02-21T07:58:46;99837.41;;;8.39;100.00
45050;BME280;61798;48.048;-1.928;2024-02-21T08:00:53;99834.31;;;8.35;100.00
45050;BME280;61798;48.048;-1.928;2024-02-21T08:02:59;99838.03;;;8.41;100.00
45050;BME280;61798;48.048;-1.928;2024-02-21T08:05:06;99841.75;;;8.40;100.00
45050;BME280;61798;48.048;-1.928;2024-02-21T08:07:12;99826.91;;;8.37;100.00
45050;BME280;61798;48.048;-1.928;2024-02-21T08:09:19;99833.34;;;8.50;100.00
45050;BME280;61798;48.048;-1.928;2024-02-21T08:11:25;99814.63;;;8.43;100.00
45050;BME280;61798;48.048;-1.928;2024-02-21T08:13:32;99826.56;;;8.47;100.00
45050;BME280;61798;48.048;-1.928;2024-02-21T08:15:38;99809.50;;;8.48;100.00
45050;BME280;61798;48.048;-1.928;2024-02-21T08:17:45;99797.59;;;8.44;100.00
45050;BME280;61798;48.048;-1.928;2024-02-21T08:19:51;99805.41;;;8.52;100.00
45050;BME280;61798;48.048;-1.928;2024-02-21T08:21:56;99789.38;;;8.52;100.00
45050;BME280;61798;48.048;-1.928;2024-02-21T08:24:02;99797.91;;;8.63;100.00
45050;BME280;61798;48.048;-1.928;2024-02-21T08:26:08;99769.84;;;8.45;100.00
45050;BME280;61798;48.048;-1.928;2024-02-21T08:28:14;99769.44;;;8.48;100.00
45050;BME280;61798;48.048;-1.928;2024-02-21T08:30:21;99775.25;;;8.59;100.00
45050;BME280;61798;48.048;-1.928;2024-02-21T08:32:28;99784.75;;;8.68;100.00
45050;BME280;61798;48.048;-1.928;2024-02-21T08:34:35;99783.94;;;8.67;100.00
45050;BME280;61798;48.048;-1.928;2024-02-21T08:36:43;99779.03;;;8.78;100.00
45050;BME280;61798;48.048;-1.928;2024-02-21T08:38:50;99764.66;;;8.79;100.00
45050;BME280;61798;48.048;-1.928;2024-02-21T08:40:57;99768.94;;;8.80;100.00
45050;BME280;61798;48.048;-1.928;2024-02-21T08:43:03;99761.75;;;8.81;100.00
45050;BME280;61798;48.048;-1.928;2024-02-21T08:45:10;99729.69;;;8.74;100.00
45050;BME280;61798;48.048;-1.928;2024-02-21T08:47:17;99752.94;;;8.87;100.00
45050;BME280;61798;48.048;-1.928;2024-02-21T08:49:24;99745.94;;;8.86;100.00
45050;BME280;61798;48.048;-1.928;2024-02-21T08:51:33;99722.72;;;8.80;100.00
45050;BME280;61798;48.048;-1.928;2024-02-21T08:53:39;99720.25;;;8.85;100.00
45050;BME280;61798;48.048;-1.928;2024-02-21T08:55:46;99720.88;;;8.87;100.00
45050;BME280;61798;48.048;-1.928;2024-02-21T08:57:53;99724.78;;;8.91;100.00
45050;BME280;61798;48.048;-1.928;2024-02-21T09:00:00;99716.56;;;8.93;100.00
45050;BME280;61798;48.048;-1.928;2024-02-21T09:02:07;99701.97;;;8.95;100.00
45050;BME280;61798;48.048;-1.928;2024-02-21T09:04:16;99670.31;;;8.72;100.00
45050;BME280;61798;48.048;-1.928;2024-02-21T09:06:23;99690.84;;;8.85;100.00
45050;BME280;61798;48.048;-1.928;2024-02-21T09:08:31;99695.38;;;9.05;100.00
45050;BME280;61798;48.048;-1.928;2024-02-21T09:10:39;99686.94;;;9.08;100.00
45050;BME280;61798;48.048;-1.928;2024-02-21T09:12:47;99691.88;;;9.04;100.00
45050;BME280;61798;48.048;-1.928;2024-02-21T09:14:54;99697.84;;;9.06;100.00
45050;BME280;61798;48.048;-1.928;2024-02-21T09:17:01;99680.38;;;9.04;100.00
45050;BME280;61798;48.048;-1.928;2024-02-21T09:19:09;99679.56;;;9.10;100.00
45050;BME280;61798;48.048;-1.928;2024-02-21T09:21:17;99671.97;;;9.07;100.00
45050;BME280;61798;48.048;-1.928;2024-02-21T09:23:27;99659.81;;;9.18;100.00
45050;BME280;61798;48.048;-1.928;2024-02-21T09:25:35;99653.63;;;9.17;100.00
45050;BME280;61798;48.048;-1.928;2024-02-21T09:27:44;99661.88;;;9.23;100.00
45050;BME280;61798;48.048;-1.928;2024-02-21T09:29:52;99662.25;;;9.26;100.00
45050;BME280;61798;48.048;-1.928;2024-02-21T09:31:57;99646.81;;;9.28;100.00
45050;BME280;61798;48.048;-1.928;2024-02-21T09:34:03;99651.97;;;9.30;100.00
45050;BME280;61798;48.048;-1.928;2024-02-21T09:36:09;99638.81;;;9.22;100.00
45050;BME280;61798;48.048;-1.928;2024-02-21T09:38:16;99628.72;;;9.24;100.00
45050;BME280;61798;48.048;-1.928;2024-02-21T09:40:23;99650.94;;;9.31;100.00
45050;BME280;61798;48.048;-1.928;2024-02-21T09:42:41;99644.94;;;9.36;100.00
45050;BME280;61798;48.048;-1.928;2024-02-21T09:44:47;99645.19;;;9.34;100.00
45050;BME280;61798;48.048;-1.928;2024-02-21T09:47:07;99634.25;;;9.36;100.00
45050;BME280;61798;48.048;-1.928;2024-02-21T09:49:33;99632.63;;;9.35;100.00
45050;BME280;61798;48.048;-1.928;2024-02-21T09:51:41;99613.72;;;9.29;100.00
45050;BME280;61798;48.048;-1.928;2024-02-21T09:53:50;99606.28;;;9.31;100.00
45050;BME280;61798;48.048;-1.928;2024-02-21T09:55:59;99607.31;;;9.37;100.00
45050;BME280;61798;48.048;-1.928;2024-02-21T09:58:05;99597.25;;;9.33;100.00
45050;BME280;61798;48.048;-1.928;2024-02-21T10:00:11;99579.16;;;9.28;100.00
45050;BME280;61798;48.048;-1.928;2024-02-21T10:02:20;99596.81;;;9.36;100.00
45050;BME280;61798;48.048;-1.928;2024-02-21T10:04:27;99593.34;;;9.35;100.00
45050;BME280;61798;48.048;-1.928;2024-02-21T10:06:35;99595.59;;;9.38;100.00
45050;BME280;61798;48.048;-1.928;2024-02-21T10:08:52;99584.69;;;9.40;100.00
45050;BME280;61798;48.048;-1.928;2024-02-21T10:10:58;99590.66;;;9.42;100.00
45050;BME280;61798;48.048;-1.928;2024-02-21T10:13:09;99590.03;;;9.47;100.00
45050;BME280;61798;48.048;-1.928;2024-02-21T10:15:21;99582.63;;;9.42;100.00
45050;BME280;61798;48.048;-1.928;2024-02-21T10:17:30;99583.84;;;9.46;100.00
45050;BME280;61798;48.048;-1.928;2024-02-21T10:19:37;99574.81;;;9.40;100.00
45050;BME280;61798;48.048;-1.928;2024-02-21T10:21:44;99560.16;;;9.50;100.00
45050;BME280;61798;48.048;-1.928;2024-02-21T10:23:51;99570.25;;;9.48;100.00
45050;BME280;61798;48.048;-1.928;2024-02-21T10:26:09;99557.94;;;9.47;100.00
45050;BME280;61798;48.048;-1.928;2024-02-21T10:28:16;99539.00;;;9.41;100.00
45050;BME280;61798;48.048;-1.928;2024-02-21T10:30:24;99541.25;;;9.45;100.00
45050;BME280;61798;48.048;-1.928;2024-02-21T10:32:31;99544.97;;;9.44;100.00
45050;BME280;61798;48.048;-1.928;2024-02-21T10:34:41;99543.34;;;9.43;100.00
45050;BME280;61798;48.048;-1.928;2024-02-21T10:37:00;99546.19;;;9.48;100.00
45050;BME280;61798;48.048;-1.928;2024-02-21T10:39:07;99542.47;;;9.49;100.00
45050;BME280;61798;48.048;-1.928;2024-02-21T10:41:15;99544.72;;;9.52;100.00
45050;BME280;61798;48.048;-1.928;2024-02-21T10:43:25;99535.47;;;9.48;100.00
45050;BME280;61798;48.048;-1.928;2024-02-21T10:45:36;99545.38;;;9.47;100.00
45050;BME280;61798;48.048;-1.928;2024-02-21T10:47:47;99531.59;;;9.44;100.00
45050;BME280;61798;48.048;-1.928;2024-02-21T10:50:04;99555.66;;;9.50;100.00
45050;BME280;61798;48.048;-1.928;2024-02-21T10:55:34;99530.38;;;9.46;100.00
45050;BME280;61798;48.048;-1.928;2024-02-21T10:57:42;99526.88;;;9.46;100.00
45050;BME280;61798;48.048;-1.928;2024-02-21T10:59:50;99439.66;;;9.45;100.00
45050;BME280;61798;48.048;-1.928;2024-02-21T11:01:56;99422.47;;;9.27;100.00
45050;BME280;61798;48.048;-1.928;2024-02-21T11:04:10;99448.28;;;9.47;100.00